Terminal Aerodrome Forecast
Issued by NWS

Home | Current Version | Previous Version | Text Only | Print | Product List | Glossary On
Versions: 1 2 3 4 5 6 7 8 9 10 11 12 13 14 15 16 17 18 19 20 21 22 23 24 25 26 27 28 29 30 31 32
820
FTUS43 KDTX 161504 AAA
TAFPTK
TAF AMD
KPTK 161504Z 1615/1712 VRB03KT 4SM BR SCT070 OVC100
     FM161700 12005KT 5SM BR SCT040 OVC060
      TEMPO 1617/1621 2SM -SNPL OVC040
     FM162100 10005KT 4SM -FZRAPL BR BKN018 OVC030
     FM170200 09005KT 2SM -FZRA BR OVC008
     FM170600 10008KT 1SM RA BR OVC003=

USA.gov is the U.S. government's official web portal to all federal, state and local government web resources and services.